Terminal Aerodrome Forecast
Issued by NWS Charleston, WV

Current Version | Previous Version | Graphics & Text | Print | Product List | Glossary On
Versions: 1 2 3 4 5 6 7 8 9 10 11 12 13 14 15 16 17 18 19 20 21 22 23 24 25 26 27 28
167
FTUS41 KRLX 241120
TAFPKB
TAF
KPKB 241120Z 2412/2512 00000KT 1/2SM FG VV002
     FM241300 24003KT P6SM SCT050
     FM241700 28007KT P6SM BKN050
     FM242300 33005KT P6SM SCT250
     FM250600 36003KT P6SM VCFG SCT010=

USA.gov is the U.S. government's official web portal to all federal, state and local government web resources and services.